Time;durP1;ratioP1;P1;durP2;ratioP2;P2;SDS_P1;SDS_P2;PMS_P1;PMS_P2;Temp;Humidity;BMP_temperature;BMP_pressure;BME280_temperature;BME280_humidity;BME280_pressure;Samples;Min_cycle;Max_cycle;Signal;HPM_P1;HPM_P2
2021/01/27 00:00:49;;;;;;;80.60;49.42;;;128.40;1715.20;;;;;;4938310;29;20128;-72
2021/01/27 00:03:16;;;;;;;76.63;47.92;;;128.50;1689.60;;;;;;4938027;29;20028;-71
2021/01/27 00:05:47;;;;;;;71.10;39.88;;;128.70;1664.00;;;;;;4938260;29;20032;-71
2021/01/27 00:08:13;;;;;;;75.60;42.72;;;128.70;1664.00;;;;;;4938051;29;20142;-71
2021/01/27 00:10:39;;;;;;;79.78;44.40;;;128.80;1664.00;;;;;;4938343;29;20102;-71
2021/01/27 00:13:07;;;;;;;76.30;43.88;;;128.80;1664.00;;;;;;4937962;29;20032;-71
2021/01/27 00:15:36;;;;;;;77.40;43.38;;;128.90;1638.40;;;;;;4937786;29;20024;-71
2021/01/27 00:18:03;;;;;;;85.40;46.15;;;153.60;1664.00;;;;;;4938065;29;20035;-71
2021/01/27 00:20:29;;;;;;;95.03;49.88;;;153.60;1689.60;;;;;;4937752;29;20039;-72
2021/01/27 00:22:56;;;;;;;81.22;45.20;;;153.80;1638.40;;;;;;4937953;29;20487;-72
2021/01/27 00:25:30;;;;;;;79.68;46.47;;;153.90;1612.80;;;;;;4938119;29;20024;-71
2021/01/27 00:27:56;;;;;;;78.15;44.28;;;153.80;1612.80;;;;;;4937892;29;20067;-71
2021/01/27 00:30:28;;;;;;;79.55;44.15;;;153.90;1638.40;;;;;;4938136;29;20034;-71
2021/01/27 00:32:54;;;;;;;73.05;41.20;;;153.80;1612.80;;;;;;4937633;29;20106;-70
2021/01/27 00:35:27;;;;;;;58.88;35.75;;;154.00;1612.80;;;;;;4937549;29;20027;-71
2021/01/27 00:37:54;;;;;;;57.45;35.17;;;128.90;1664.00;;;;;;4937500;29;20023;-71
2021/01/27 00:40:20;;;;;;;61.25;35.65;;;153.90;1587.20;;;;;;4937575;29;20056;-71
2021/01/27 00:42:46;;;;;;;55.20;34.45;;;153.90;1612.80;;;;;;4937367;29;20102;-70
2021/01/27 00:45:12;;;;;;;60.40;33.95;;;154.00;1587.20;;;;;;4937370;29;20110;-70
2021/01/27 00:47:38;;;;;;;52.58;32.28;;;153.90;1612.80;;;;;;4937347;29;20111;-71
2021/01/27 00:50:04;;;;;;;57.85;34.40;;;153.90;1587.20;;;;;;4937568;29;20386;-71
2021/01/27 00:52:30;;;;;;;47.95;27.90;;;154.00;1612.80;;;;;;4937239;29;20559;-70
2021/01/27 00:54:56;;;;;;;45.22;28.77;;;153.90;1612.80;;;;;;4935881;29;20152;-70
2021/01/27 00:57:21;;;;;;;46.67;29.52;;;154.00;1612.80;;;;;;4937136;29;20040;-71
2021/01/27 00:59:47;;;;;;;47.65;30.20;;;153.90;1587.20;;;;;;4936400;29;20027;-70
2021/01/27 01:02:13;;;;;;;44.22;26.17;;;153.80;1612.80;;;;;;4936986;29;20451;-70
2021/01/27 01:04:39;;;;;;;71.00;40.92;;;153.90;1612.80;;;;;;4936854;29;20058;-70
2021/01/27 01:07:04;;;;;;;64.55;40.55;;;154.00;1612.80;;;;;;4936858;29;20024;-70
2021/01/27 01:09:30;;;;;;;60.58;38.83;;;154.00;1612.80;;;;;;4937060;29;20035;-71
2021/01/27 01:11:56;;;;;;;67.35;41.55;;;153.90;1612.80;;;;;;4937022;29;20390;-72
2021/01/27 01:14:22;;;;;;;65.70;39.97;;;153.90;1612.80;;;;;;4936723;29;20031;-71
2021/01/27 01:16:48;;;;;;;54.42;32.00;;;154.00;1612.80;;;;;;4937184;29;20043;-72
2021/01/27 01:19:14;;;;;;;40.38;25.83;;;154.10;1612.80;;;;;;4936905;29;20475;-72
2021/01/27 01:21:39;;;;;;;41.58;24.17;;;154.20;1612.80;;;;;;4936755;29;20050;-72
2021/01/27 01:24:06;;;;;;;44.85;26.77;;;154.20;1612.80;;;;;;4936686;29;20071;-72
2021/01/27 01:26:32;;;;;;;43.03;27.60;;;154.40;1561.60;;;;;;4936819;29;20423;-72
2021/01/27 01:28:58;;;;;;;42.78;27.65;;;154.20;1587.20;;;;;;4936786;29;20032;-72
2021/01/27 01:31:23;;;;;;;45.85;27.60;;;154.20;1612.80;;;;;;4936627;29;20524;-72
2021/01/27 01:33:49;;;;;;;46.40;30.52;;;154.10;1638.40;;;;;;4936542;29;20469;-73
2021/01/27 01:36:15;;;;;;;50.00;31.95;;;154.40;1612.80;;;;;;4935465;29;20127;-72
2021/01/27 01:38:41;;;;;;;50.78;31.52;;;;;;;;;;4936545;29;20024;-73
2021/01/27 01:41:07;;;;;;;44.30;27.92;;;;;;;;;;4937070;29;20028;-72
2021/01/27 01:43:38;;;;;;;38.92;27.10;;;128.70;1689.60;;;;;;4936452;29;20042;-72
2021/01/27 01:46:20;;;;;;;47.75;31.23;;;128.90;1664.00;;;;;;4936375;29;20020;-72
2021/01/27 01:48:58;;;;;;;;;;;153.70;1638.40;;;;;;4936715;29;20032;-72
2021/01/27 01:51:34;;;;;;;55.58;33.00;;;153.60;1638.40;;;;;;4936307;29;20255;-72
2021/01/27 01:54:13;;;;;;;55.92;35.88;;;153.80;1638.40;;;;;;4936346;29;20023;-72
2021/01/27 01:56:43;;;;;;;55.78;34.97;;;153.80;1638.40;;;;;;4936037;29;20506;-73
2021/01/27 01:59:11;;;;;;;54.03;35.58;;;153.80;1638.40;;;;;;4936508;29;20028;-72
2021/01/27 02:01:41;;;;;;;59.38;37.75;;;153.90;1638.40;;;;;;4936271;29;20107;-72
2021/01/27 02:04:06;;;;;;;56.53;35.47;;;154.00;1638.40;;;;;;4936200;29;20032;-72
2021/01/27 02:06:32;;;;;;;55.55;36.08;;;154.10;1638.40;;;;;;4936107;29;20024;-72
2021/01/27 02:08:59;;;;;;;57.95;36.58;;;154.10;1638.40;;;;;;4936056;29;20028;-72
2021/01/27 02:11:54;;;;;;;58.50;37.10;;;154.10;1638.40;;;;;;4935494;29;20102;-72
2021/01/27 02:14:41;;;;;;;56.28;36.40;;;154.20;1638.40;;;;;;4936043;29;20027;-72
2021/01/27 02:17:17;;;;;;;57.75;38.00;;;154.20;1612.80;;;;;;4936166;29;20028;-72
2021/01/27 02:19:58;;;;;;;54.90;33.22;;;154.20;1664.00;;;;;;4936008;29;20095;-72
2021/01/27 02:22:29;;;;;;;47.40;28.30;;;154.00;1817.60;;;;;;4935881;29;20494;-72
2021/01/27 02:25:04;;;;;;;40.38;27.08;;;153.80;1664.00;;;;;;4936193;29;20114;-72
2021/01/27 02:27:46;;;;;;;41.70;26.77;;;153.60;1689.60;;;;;;4936067;29;20035;-72
2021/01/27 02:30:35;;;;;;;43.22;25.80;;;153.80;1689.60;;;;;;4935856;29;20043;-71
2021/01/27 02:33:31;;;;;;;46.80;27.52;;;153.80;1664.00;;;;;;4936144;29;20614;-72
2021/01/27 02:36:22;;;;;;;45.25;28.60;;;154.00;1664.00;;;;;;4935758;29;20031;-72
2021/01/27 02:38:59;;;;;;;45.03;27.33;;;154.00;1664.00;;;;;;4935974;29;20591;-71
2021/01/27 02:41:52;;;;;;;49.58;32.08;;;154.00;1664.00;;;;;;4935799;29;20039;-72
2021/01/27 02:44:23;;;;;;;49.05;30.30;;;154.10;1664.00;;;;;;4935800;29;20051;-72
2021/01/27 02:46:51;;;;;;;42.88;26.80;;;153.90;1715.20;;;;;;4935752;29;20067;-72
2021/01/27 02:49:28;;;;;;;36.70;23.25;;;153.60;1715.20;;;;;;4936048;29;20111;-72
2021/01/27 02:52:32;;;;;;;36.72;23.92;;;128.90;1740.80;;;;;;4935540;29;20024;-72
2021/01/27 02:55:20;;;;;;;33.25;23.45;;;153.80;1740.80;;;;;;4931035;29;20071;-72
2021/01/27 02:58:10;;;;;;;36.70;24.45;;;153.70;1740.80;;;;;;4934478;29;20044;-72
2021/01/27 03:00:39;;;;;;;33.50;23.25;;;153.90;1715.20;;;;;;4935753;29;20482;-72
2021/01/27 03:03:27;;;;;;;35.92;24.15;;;153.80;1740.80;;;;;;4935601;29;20447;-72
2021/01/27 03:05:59;;;;;;;34.55;24.75;;;128.70;1766.40;;;;;;4931556;29;20406;-72
2021/01/27 03:08:32;;;;;;;37.97;24.20;;;153.60;1740.80;;;;;;4935632;29;20051;-72
2021/01/27 03:11:05;;;;;;;32.78;22.13;;;128.90;1766.40;;;;;;4934570;29;20067;-71
2021/01/27 03:13:34;;;;;;;33.63;22.48;;;153.60;1766.40;;;;;;4935701;29;20032;-72
2021/01/27 03:16:06;;;;;;;28.90;20.35;;;128.90;1766.40;;;;;;4935502;29;20056;-72
2021/01/27 03:18:35;;;;;;;30.00;20.30;;;128.90;1766.40;;;;;;4935477;29;20042;-72
2021/01/27 03:21:17;;;;;;;31.67;22.58;;;128.90;1792.00;;;;;;4935542;29;20027;-71
2021/01/27 03:23:50;;;;;;;31.38;21.00;;;153.60;1766.40;;;;;;4935496;29;20031;-72
2021/01/27 03:26:22;;;;;;;27.00;19.25;;;128.80;1792.00;;;;;;4938791;29;20032;-72
2021/01/27 03:29:01;;;;;;;30.35;20.00;;;128.80;1792.00;;;;;;4938776;29;20112;-72
2021/01/27 03:31:27;;;;;;;30.55;20.40;;;128.60;1817.60;;;;;;4939051;29;20035;-72
2021/01/27 03:33:58;;;;;;;27.35;18.92;;;128.70;1817.60;;;;;;4938995;29;20032;-72
2021/01/27 03:36:26;;;;;;;26.85;18.67;;;128.50;1817.60;;;;;;4938546;29;20027;-72
2021/01/27 03:38:54;;;;;;;26.60;18.10;;;128.50;1817.60;;;;;;4938620;29;20035;-71
2021/01/27 03:41:20;;;;;;;32.47;21.70;;;128.60;1817.60;;;;;;4938562;29;20076;-72
2021/01/27 03:44:00;;;;;;;30.45;21.00;;;128.40;1843.20;;;;;;4938520;29;20047;-75
2021/01/27 03:46:32;;;;;;;28.42;19.88;;;;;;;;;;4938571;29;20102;-73
2021/01/27 03:49:07;;;;;;;27.70;19.17;;;128.40;1894.40;;;;;;4938397;29;20032;-72
2021/01/27 03:51:37;;;;;;;28.38;18.80;;;128.20;1894.40;;;;;;4938883;29;20035;-72
2021/01/27 03:54:06;;;;;;;27.05;19.83;;;128.30;1894.40;;;;;;4938230;29;20028;-72
2021/01/27 03:56:52;;;;;;;35.38;22.27;;;128.30;1894.40;;;;;;4938143;29;20052;-71
2021/01/27 03:59:18;;;;;;;32.85;22.65;;;128.50;1894.40;;;;;;4938582;29;20381;-72
2021/01/27 04:01:50;;;;;;;30.83;22.77;;;128.60;1843.20;;;;;;4938236;29;20030;-72
2021/01/27 04:04:16;;;;;;;33.92;22.63;;;128.50;1920.00;;;;;;4938245;29;20063;-72
2021/01/27 04:06:42;;;;;;;31.58;22.23;;;128.60;1894.40;;;;;;4938047;29;20030;-72
2021/01/27 04:09:08;;;;;;;35.90;23.88;;;128.60;1868.80;;;;;;4938407;29;20040;-72
2021/01/27 04:11:34;;;;;;;29.92;21.48;;;128.40;1894.40;;;;;;4936656;29;20399;-72
2021/01/27 04:13:59;;;;;;;31.88;21.48;;;128.60;1817.60;;;;;;4938320;29;20032;-71
2021/01/27 04:16:25;;;;;;;32.60;21.38;;;128.60;1843.20;;;;;;4937981;29;20062;-72
2021/01/27 04:18:51;;;;;;;29.15;21.17;;;128.10;1920.00;;;;;;4937894;29;20026;-72
2021/01/27 04:21:17;;;;;;;30.27;22.25;;;128.10;1996.80;;;;;;4936608;29;20040;-72
2021/01/27 04:23:42;;;;;;;32.53;22.00;;;128.30;1945.60;;;;;;4937680;29;20063;-72
2021/01/27 04:26:08;;;;;;;33.13;22.10;;;128.30;1971.20;;;;;;4937777;29;20032;-72
2021/01/27 04:28:34;;;;;;;35.08;23.15;;;128.40;1945.60;;;;;;4937685;29;20091;-72
2021/01/27 04:30:59;;;;;;;31.27;21.98;;;128.40;1945.60;;;;;;4937814;29;20023;-72
2021/01/27 04:33:26;;;;;;;29.33;20.42;;;128.10;2022.40;;;;;;4936596;29;20537;-71
2021/01/27 04:35:53;;;;;;;39.17;24.50;;;128.20;1996.80;;;;;;4936962;29;20487;-71
2021/01/27 04:38:19;;;;;;;30.77;21.65;;;128.30;1971.20;;;;;;4937343;29;20395;-72
2021/01/27 04:40:47;;;;;;;31.45;21.88;;;;;;;;;;4938098;29;20533;-71
2021/01/27 04:43:18;;;;;;;47.92;28.50;;;;;;;;;;4937700;29;20406;-72
2021/01/27 04:45:47;;;;;;;36.95;24.48;;;;;;;;;;4937502;29;20024;-72
2021/01/27 04:48:20;;;;;;;32.65;21.67;;;;;;;;;;4937677;29;20032;-72
2021/01/27 04:50:53;;;;;;;39.17;25.65;;;128.50;1945.60;;;;;;4937289;29;20440;-73
2021/01/27 04:53:37;;;;;;;40.03;25.75;;;128.50;2252.80;;;;;;4937281;29;20394;-72
2021/01/27 04:56:17;;;;;;;35.60;24.30;;;128.50;1945.60;;;;;;4937176;29;20047;-72
2021/01/27 04:58:59;;;;;;;38.08;24.58;;;;;;;;;;4937212;29;20486;-72
2021/01/27 05:01:25;;;;;;;;;;;;;;;;;;4938085;29;20094;-72
2021/01/27 05:04:03;;;;;;;46.13;25.92;;;;;;;;;;4936952;29;19921;-72
2021/01/27 05:06:32;;;;;;;44.63;26.80;;;;;;;;;;4935659;29;20430;-72
2021/01/27 05:09:11;;;;;;;48.83;28.67;;;;;;;;;;4937059;29;20028;-72
2021/01/27 05:11:37;;;;;;;52.25;30.55;;;;;;;;;;4936971;29;20602;-73
2021/01/27 05:14:04;;;;;;;48.08;29.52;;;;;;;;;;4936845;29;20071;-72
2021/01/27 05:16:31;;;;;;;50.78;29.23;;;;;;;;;;4937098;29;20034;-72
2021/01/27 05:19:01;;;;;;;41.45;26.23;;;;;;;;;;4936874;29;20028;-72
2021/01/27 05:21:27;;;;;;;46.42;26.58;;;;;;;;;;4936646;29;20110;-72
2021/01/27 05:23:54;;;;;;;38.40;24.02;;;;;;;;;;4936608;29;20046;-72
2021/01/27 05:26:21;;;;;;;34.97;23.88;;;;;;;;;;4936710;29;20438;-72
2021/01/27 05:28:54;;;;;;;37.65;24.05;;;;;;;;;;4936946;29;20036;-72
2021/01/27 05:31:20;;;;;;;40.28;23.67;;;;;;;;;;4936787;29;20051;-72
2021/01/27 05:33:48;;;;;;;33.28;23.17;;;;;;;;;;4936608;29;20079;-72
2021/01/27 05:36:21;;;;;;;34.03;21.52;;;103.30;1868.80;;;;;;4936701;29;20047;-72
2021/01/27 05:38:47;;;;;;;36.72;22.60;;;103.20;1894.40;;;;;;4936642;29;20426;-72
2021/01/27 05:41:27;;;;;;;29.75;20.00;;;128.00;1894.40;;;;;;4936203;29;20023;-72
2021/01/27 05:44:25;;;;;;;31.70;20.58;;;103.20;1920.00;;;;;;4936481;29;20040;-71
2021/01/27 05:46:50;;;;;;;27.65;19.30;;;128.00;1920.00;;;;;;4915102;29;20039;-72
2021/01/27 05:49:30;;;;;;;26.27;18.83;;;128.00;1920.00;;;;;;4915508;29;20403;-72
2021/01/27 05:52:12;;;;;;;30.90;20.15;;;103.30;1894.40;;;;;;4915174;29;20060;-73
2021/01/27 05:54:38;;;;;;;31.77;21.67;;;;;;;;;;4915070;29;20036;-72
2021/01/27 05:57:27;;;;;;;30.08;19.73;;;128.00;2252.80;;;;;;4914937;29;20064;-72
2021/01/27 06:00:19;;;;;;;32.28;20.15;;;103.10;1894.40;;;;;;4915284;29;20561;-72
2021/01/27 06:02:44;;;;;;;;;;;103.10;1920.00;;;;;;4915725;29;20054;-71
2021/01/27 06:05:19;;;;;;;38.42;23.80;;;128.10;1920.00;;;;;;4915128;29;20003;-72
2021/01/27 06:07:45;;;;;;;41.60;25.52;;;128.10;1894.40;;;;;;4915149;29;20092;-71
2021/01/27 06:10:26;;;;;;;36.20;23.55;;;103.30;1868.80;;;;;;4915112;29;20032;-72
2021/01/27 06:12:51;;;;;;;35.45;23.55;;;103.20;1868.80;;;;;;4914847;29;20032;-73
2021/01/27 06:15:29;;;;;;;35.20;25.20;;;103.30;1894.40;;;;;;4914993;29;20028;-71
2021/01/27 06:17:55;;;;;;;35.33;22.92;;;103.20;1894.40;;;;;;4915092;29;20040;-72
2021/01/27 06:20:32;;;;;;;31.50;21.45;;;128.00;1868.80;;;;;;4914814;29;20028;-72
2021/01/27 06:23:17;;;;;;;37.22;24.77;;;;;;;;;;4919421;29;20055;-71
2021/01/27 06:26:07;;;;;;;34.75;25.25;;;128.00;1868.80;;;;;;4936172;29;20451;-72
2021/01/27 06:28:57;;;;;;;32.08;23.38;;;128.00;2124.80;;;;;;4935865;29;20044;-72
2021/01/27 06:31:42;;;;;;;33.67;23.27;;;128.30;2201.60;;;;;;4936024;29;20472;-72
2021/01/27 06:34:37;;;;;;;32.92;24.08;;;128.20;2252.80;;;;;;4936077;29;20102;-72
2021/01/27 06:37:08;;;;;;;35.83;24.48;;;128.20;1894.40;;;;;;4915473;29;20552;-71
2021/01/27 06:40:28;;;;;;;35.45;24.33;;;128.00;1894.40;;;;;;4931783;29;20102;-71
2021/01/27 06:43:08;;;;;;;36.05;22.85;;;128.00;1894.40;;;;;;4924564;29;20387;-71
2021/01/27 06:45:58;;;;;;;33.03;23.20;;;128.20;1894.40;;;;;;4917300;29;20029;-71
2021/01/27 06:48:29;;;;;;;38.15;24.25;;;128.20;1894.40;;;;;;4913787;29;20044;-70
2021/01/27 06:51:20;;;;;;;34.38;23.02;;;128.10;1894.40;;;;;;4914010;29;20447;-70
2021/01/27 06:54:16;;;;;;;43.50;25.90;;;128.00;1894.40;;;;;;4913846;29;20140;-71
2021/01/27 06:57:02;;;;;;;39.95;25.58;;;103.20;1894.40;;;;;;4913448;29;20076;-70
2021/01/27 06:59:28;;;;;;;40.67;23.27;;;128.00;1894.40;;;;;;4911200;29;20168;-71
2021/01/27 07:02:31;;;;;;;39.40;27.38;;;103.30;1894.40;;;;;;4916916;29;20755;-70
2021/01/27 07:05:08;;;;;;;45.47;27.88;;;103.10;1920.00;;;;;;4917662;29;20063;-71
2021/01/27 07:08:10;;;;;;;44.05;28.42;;;103.30;1920.00;;;;;;4917088;29;20040;-70
2021/01/27 07:10:53;;;;;;;43.53;27.83;;;103.30;1920.00;;;;;;4932121;29;20028;-72
2021/01/27 07:13:18;;;;;;;39.92;27.23;;;128.00;1945.60;;;;;;4919752;29;20390;-72
2021/01/27 07:16:22;;;;;;;43.85;28.00;;;103.30;1920.00;;;;;;4938909;29;20086;-73
2021/01/27 07:19:18;;;;;;;47.40;27.63;;;103.30;1920.00;;;;;;4880614;29;20041;-73
2021/01/27 07:21:52;;;;;;;44.63;27.80;;;128.00;1945.60;;;;;;4880405;29;20488;-70
2021/01/27 07:24:25;;;;;;;39.13;23.98;;;128.00;1920.00;;;;;;4879935;29;20140;-73
2021/01/27 07:26:58;;;;;;;37.45;24.08;;;128.00;1920.00;;;;;;4880263;29;20037;-72
2021/01/27 07:29:32;;;;;;;40.17;25.13;;;128.00;1920.00;;;;;;4880195;29;20612;-68
2021/01/27 07:32:13;;;;;;;40.38;25.40;;;128.00;1920.00;;;;;;4879915;29;20037;-72
2021/01/27 07:35:08;;;;;;;40.17;26.35;;;128.20;1920.00;;;;;;4879992;29;20520;-72
2021/01/27 07:37:50;;;;;;;45.75;30.00;;;128.20;1894.40;;;;;;4879827;29;20037;-70
2021/01/27 07:40:46;;;;;;;50.30;30.77;;;128.20;1920.00;;;;;;4880031;29;20575;-72
2021/01/27 07:43:17;;;;;;;44.42;29.25;;;128.40;1868.80;;;;;;4879924;29;20056;-70
2021/01/27 07:45:49;;;;;;;45.25;28.65;;;128.20;1894.40;;;;;;4879872;29;20041;-70
2021/01/27 07:49:02;;;;;;;41.17;28.98;;;128.00;1920.00;;;;;;4880036;29;20028;-70
2021/01/27 07:51:34;;;;;;;34.05;23.73;;;128.40;1868.80;;;;;;4879709;29;20420;-69
2021/01/27 07:54:02;;;;;;;42.25;31.48;;;128.40;1868.80;;;;;;4879344;29;20073;-69
2021/01/27 07:56:51;;;;;;;41.25;29.65;;;128.30;1868.80;;;;;;4908821;29;20503;-70
2021/01/27 07:59:26;;;;;;;33.92;25.27;;;128.20;1868.80;;;;;;4917201;29;20052;-70
2021/01/27 08:01:57;;;;;;;40.60;27.75;;;128.30;1868.80;;;;;;4917009;29;20028;-69
2021/01/27 08:04:37;;;;;;;37.65;27.45;;;128.30;1868.80;;;;;;4916866;29;20091;-69
2021/01/27 08:07:04;;;;;;;30.65;21.58;;;128.50;1843.20;;;;;;4916973;29;20086;-69
2021/01/27 08:09:37;;;;;;;34.20;22.15;;;128.20;1843.20;;;;;;4916759;29;20032;-72
2021/01/27 08:12:20;;;;;;;40.47;27.75;;;;;;;;;;4916879;29;20036;-73
2021/01/27 08:15:06;;;;;;;31.00;22.00;;;128.40;1843.20;;;;;;4916934;29;20028;-70
2021/01/27 08:17:44;;;;;;;36.75;25.17;;;128.40;2227.20;;;;;;4917014;29;20028;-72
2021/01/27 08:20:26;;;;;;;51.53;32.75;;;128.50;1817.60;;;;;;4916845;29;20036;-72
2021/01/27 08:23:01;;;;;;;54.83;42.40;;;128.60;1817.60;;;;;;4916465;29;20046;-73
2021/01/27 08:25:58;;;;;;;51.95;36.88;;;128.50;1817.60;;;;;;4917562;29;20119;-72
2021/01/27 08:28:36;;;;;;;43.90;28.48;;;;;;;;;;4918786;29;20032;-70
2021/01/27 08:31:08;;;;;;;36.50;26.10;;;128.70;1766.40;;;;;;4918765;29;20431;-72
2021/01/27 08:33:55;;;;;;;36.42;23.52;;;128.80;1766.40;;;;;;4918589;29;20378;-70
2021/01/27 08:36:28;;;;;;;30.27;20.35;;;128.90;1766.40;;;;;;4918524;29;20024;-69
2021/01/27 08:38:56;;;;;;;30.45;22.00;;;128.70;1766.40;;;;;;4918442;29;20029;-73
2021/01/27 08:41:59;;;;;;;34.45;23.52;;;128.70;1792.00;;;;;;4918476;29;20028;-72
2021/01/27 08:44:27;;;;;;;41.30;28.45;;;128.30;1843.20;;;;;;4918429;29;20071;-72
2021/01/27 08:47:17;;;;;;;44.63;28.23;;;128.40;1843.20;;;;;;4918352;29;20021;-72
2021/01/27 08:49:55;;;;;;;46.70;31.23;;;128.50;1868.80;;;;;;4916995;29;20519;-70
2021/01/27 08:52:21;;;;;;;42.10;30.33;;;128.70;1843.20;;;;;;4918290;29;20020;-72
2021/01/27 08:54:52;;;;;;;39.58;28.17;;;128.60;1817.60;;;;;;4917843;29;20606;-72
2021/01/27 08:57:28;;;;;;;40.27;29.40;;;128.50;1868.80;;;;;;4918192;29;20086;-72
2021/01/27 08:59:58;;;;;;;36.85;26.52;;;128.60;1843.20;;;;;;4918310;29;20060;-73
2021/01/27 09:03:05;;;;;;;36.70;27.15;;;128.40;1843.20;;;;;;4918289;29;20020;-71
2021/01/27 09:05:38;;;;;;;49.10;32.40;;;128.40;1868.80;;;;;;4935574;29;20539;-72
2021/01/27 09:08:06;;;;;;;49.35;33.92;;;128.60;1868.80;;;;;;4936580;29;20026;-68
2021/01/27 09:10:35;;;;;;;61.22;41.00;;;128.60;1868.80;;;;;;4935915;29;20479;-72
2021/01/27 09:13:28;;;;;;;50.67;34.15;;;128.90;1817.60;;;;;;4937016;29;20034;-72
2021/01/27 09:16:20;;;;;;;52.33;34.40;;;128.70;1817.60;;;;;;4936893;29;20414;-70
2021/01/27 09:18:58;;;;;;;43.08;31.67;;;128.90;1792.00;;;;;;4936860;29;20084;-70
2021/01/27 09:21:24;;;;;;;42.00;29.90;;;128.90;1766.40;;;;;;4936288;29;20505;-68
2021/01/27 09:24:04;;;;;;;43.55;30.48;;;153.60;1792.00;;;;;;4936289;29;20113;-71
2021/01/27 09:26:46;;;;;;;53.55;33.50;;;154.00;1740.80;;;;;;4936237;29;20482;-71
2021/01/27 09:29:19;;;;;;;43.38;28.38;;;153.80;1792.00;;;;;;4936606;29;20031;-71
2021/01/27 09:31:45;;;;;;;43.97;28.10;;;153.70;1766.40;;;;;;4936333;29;20031;-71
2021/01/27 09:34:31;;;;;;;48.45;29.90;;;128.90;1792.00;;;;;;4936720;29;20368;-67
2021/01/27 09:37:03;;;;;;;44.35;29.15;;;153.70;1792.00;;;;;;4936233;29;20063;-71
2021/01/27 09:39:38;;;;;;;42.80;29.88;;;153.70;1792.00;;;;;;4935873;29;20028;-70
2021/01/27 09:42:25;;;;;;;47.80;29.73;;;153.90;1766.40;;;;;;4936209;29;20467;-70
2021/01/27 09:45:04;;;;;;;48.58;34.38;;;153.80;1766.40;;;;;;4935709;29;20035;-70
2021/01/27 09:47:32;;;;;;;62.75;36.58;;;154.00;1740.80;;;;;;4936088;29;20034;-72
2021/01/27 09:50:00;;;;;;;42.95;27.80;;;153.90;1766.40;;;;;;4950865;28;20509;-73
2021/01/27 09:52:28;;;;;;;43.35;31.95;;;153.70;1792.00;;;;;;4936053;29;20103;-73
2021/01/27 09:55:06;;;;;;;39.47;28.25;;;153.60;1766.40;;;;;;4935712;29;20031;-70
2021/01/27 09:57:36;;;;;;;48.20;33.15;;;128.90;1792.00;;;;;;4935894;29;20514;-70
2021/01/27 10:00:07;;;;;;;45.13;31.10;;;153.70;1792.00;;;;;;4936049;29;20031;-73
2021/01/27 10:02:35;;;;;;;46.95;34.97;;;153.70;1792.00;;;;;;4935832;29;20020;-73
2021/01/27 10:05:03;;;;;;;38.47;27.23;;;153.90;1792.00;;;;;;4935956;28;20031;-73
2021/01/27 10:07:34;;;;;;;34.97;26.30;;;153.80;1792.00;;;;;;4935823;29;20055;-73
2021/01/27 10:10:17;;;;;;;38.83;25.83;;;153.70;1817.60;;;;;;4935893;29;20071;-71
2021/01/27 10:12:44;;;;;;;37.95;26.08;;;153.90;1766.40;;;;;;4935875;29;20082;-73
2021/01/27 10:15:30;;;;;;;45.13;31.05;;;154.00;1792.00;;;;;;4936181;29;20476;-71
2021/01/27 10:18:11;;;;;;;43.60;29.95;;;153.90;1792.00;;;;;;4935895;29;20102;-73
2021/01/27 10:20:39;;;;;;;42.42;29.92;;;153.90;1817.60;;;;;;4935843;29;20107;-73
2021/01/27 10:23:11;;;;;;;43.33;31.60;;;153.90;1817.60;;;;;;4935851;29;20136;-71
2021/01/27 10:25:42;;;;;;;38.75;29.88;;;153.90;1792.00;;;;;;4935812;29;20403;-75
2021/01/27 10:28:24;;;;;;;39.38;27.85;;;153.90;1792.00;;;;;;4935981;29;20044;-75
2021/01/27 10:30:50;;;;;;;44.75;31.83;;;;;;;;;;4936139;29;20034;-76
2021/01/27 10:33:35;;;;;;;50.72;33.38;;;;;;;;;;4936659;29;20035;-75
2021/01/27 10:36:21;;;;;;;52.95;37.90;;;;;;;;;;4939754;29;20031;-76
2021/01/27 10:38:47;;;;;;;49.20;32.88;;;;;;;;;;4939365;29;20027;-76
2021/01/27 10:41:21;;;;;;;44.15;31.10;;;;;;;;;;4939603;29;20400;-76
2021/01/27 10:43:48;;;;;;;37.80;28.65;;;;;;;;;;4939253;29;20096;-75
2021/01/27 10:46:25;;;;;;;36.72;25.70;;;;;;;;;;4939815;29;20027;-75
2021/01/27 10:48:51;;;;;;;48.60;33.67;;;;;;;;;;4939586;29;20035;-75
2021/01/27 10:51:17;;;;;;;37.83;27.15;;;;;;;;;;4939466;29;20128;-75
2021/01/27 10:53:44;;;;;;;41.30;28.98;;;;;;;;;;4939327;29;20442;-74
2021/01/27 10:56:14;;;;;;;39.25;27.77;;;;;;;;;;4939139;29;20103;-76
2021/01/27 10:58:40;;;;;;;41.28;29.23;;;;;;;;;;4939539;29;20027;-75
2021/01/27 11:01:06;;;;;;;42.45;28.70;;;;;;;;;;4939026;29;20039;-75
2021/01/27 11:03:33;;;;;;;41.50;28.38;;;;;;;;;;4939108;29;20039;-72
2021/01/27 11:05:59;;;;;;;40.28;30.67;;;;;;;;;;4939165;29;20054;-70
2021/01/27 11:08:29;;;;;;;47.17;32.97;;;;;;;;;;4939136;29;20471;-72
2021/01/27 11:10:56;;;;;;;58.45;52.05;;;;;;;;;;4939097;29;20427;-72
2021/01/27 11:13:22;;;;;;;50.75;42.17;;;;;;;;;;4939111;29;20035;-74
2021/01/27 11:15:48;;;;;;;47.00;37.25;;;;;;;;;;4939298;29;20067;-74
2021/01/27 11:18:14;;;;;;;44.83;33.70;;;;;;;;;;4939012;29;20099;-74
2021/01/27 11:20:41;;;;;;;51.92;35.80;;;;;;;;;;4937722;29;20380;-74
2021/01/27 11:23:07;;;;;;;35.67;26.13;;;;;;;;;;4938933;29;20034;-74
2021/01/27 11:25:33;;;;;;;45.38;31.92;;;;;;;;;;4938548;29;20046;-73
2021/01/27 11:27:59;;;;;;;46.25;32.08;;;;;;;;;;4938641;29;20039;-74
2021/01/27 11:30:27;;;;;;;45.35;35.10;;;;;;;;;;4938960;29;20028;-75
2021/01/27 11:32:53;;;;;;;47.78;37.50;;;;;;;;;;4938522;29;20024;-71
2021/01/27 11:35:20;;;;;;;47.85;35.65;;;;;;;;;;4938794;29;20031;-72
2021/01/27 11:37:46;;;;;;;42.80;27.30;;;;;;;;;;4938612;29;20482;-75
2021/01/27 11:40:13;;;;;;;29.67;22.50;;;;;;;;;;4938544;29;20030;-72
2021/01/27 11:42:39;;;;;;;39.75;26.08;;;;;;;;;;4938456;29;20058;-72
2021/01/27 11:45:06;;;;;;;49.28;32.42;;;;;;;;;;4937908;29;20028;-71
2021/01/27 11:47:32;;;;;;;50.15;33.13;;;;;;;;;;4938265;29;20034;-71
2021/01/27 11:49:58;;;;;;;45.72;29.85;;;154.50;1740.80;;;;;;4938008;29;20031;-71
2021/01/27 11:52:23;;;;;;;43.67;29.40;;;154.20;1740.80;;;;;;4937741;29;20094;-70
2021/01/27 11:54:50;;;;;;;44.47;29.38;;;154.50;1689.60;;;;;;4937983;29;20451;-71
2021/01/27 11:57:18;;;;;;;67.05;43.72;;;154.30;1740.80;;;;;;4936874;29;20083;-70
2021/01/27 11:59:45;;;;;;;51.92;31.95;;;154.50;1740.80;;;;;;4938282;29;20032;-71
2021/01/27 12:02:11;;;;;;;36.50;25.42;;;154.50;1715.20;;;;;;4938133;29;20099;-71
2021/01/27 12:04:37;;;;;;;44.53;31.95;;;179.20;1689.60;;;;;;4937742;29;20127;-69
2021/01/27 12:07:04;;;;;;;40.53;28.40;;;154.30;1740.80;;;;;;4937390;29;20079;-70
2021/01/27 12:09:30;;;;;;;42.72;29.77;;;154.40;1740.80;;;;;;4937551;29;20542;-71
2021/01/27 12:11:56;;;;;;;52.63;34.83;;;154.30;1715.20;;;;;;4937372;29;20019;-73
2021/01/27 12:14:22;;;;;;;54.80;40.42;;;154.00;1766.40;;;;;;4952315;28;20043;-70
2021/01/27 12:16:49;;;;;;;47.53;33.08;;;154.10;1766.40;;;;;;4937231;29;20142;-71
2021/01/27 12:19:15;;;;;;;45.92;31.20;;;154.40;1715.20;;;;;;4937465;29;20431;-70
2021/01/27 12:21:40;;;;;;;57.70;36.25;;;154.40;1715.20;;;;;;4937385;29;20031;-69
2021/01/27 12:24:06;;;;;;;43.08;29.85;;;154.30;1715.20;;;;;;4937278;29;20090;-70
2021/01/27 12:26:32;;;;;;;57.75;38.03;;;154.20;1715.20;;;;;;4937193;29;20028;-68
2021/01/27 12:28:58;;;;;;;40.65;29.67;;;154.30;1715.20;;;;;;4936884;29;20450;-71
2021/01/27 12:31:24;;;;;;;39.83;26.80;;;154.00;1689.60;;;;;;4938192;29;20031;-69
2021/01/27 12:33:51;;;;;;;46.15;34.67;;;153.80;1740.80;;;;;;4933980;29;20436;-70
2021/01/27 12:36:17;;;;;;;34.10;26.02;;;154.10;1689.60;;;;;;4936730;29;20027;-68
2021/01/27 12:38:43;;;;;;;34.42;23.60;;;154.00;1689.60;;;;;;4936864;29;20030;-69
2021/01/27 12:41:09;;;;;;;34.85;26.50;;;;;;;;;;4937192;29;20385;-69
2021/01/27 12:43:35;;;;;;;35.75;25.98;;;;;;;;;;4941728;29;20039;-70
2021/01/27 12:46:02;;;;;;;39.60;29.88;;;;;;;;;;4937872;28;20052;-69
2021/01/27 12:48:31;;;;;;;48.22;34.05;;;;;;;;;;4936734;29;20482;-70
2021/01/27 12:50:58;;;;;;;40.55;29.33;;;;;;;;;;4940067;29;20030;-70
2021/01/27 12:53:25;;;;;;;39.33;28.13;;;;;;;;;;4944251;29;20027;-70
2021/01/27 12:55:51;;;;;;;34.33;23.83;;;;;;;;;;4949578;28;20142;-70